Aeroporto :
LOGIN :

Iscrizione | Disclaimer

   EN    FR    IT 

 










Sommario :    VFR   VFR Marginale   IFR   IFR Intensivo   IFR Molto Intensivo
Visibilità : 
Base nubi : 
>= 8 km
>= 3000ft
5 / 8 km
1000 / 3000 ft
1500m / 5 km
500 / 1000 ft
800 / 1500m
200 / 500 ft
< 800m
< 200 ft
Simboli :   Temporali  Nebbia  Neve Forte  Precipitazioni Forti  Vento > 20 kt
SIGMETs :   Varie  Temporali  Ghiacco  Turbolenza  Onda orograficha  Ceneri Vulcaniche







- Altitudine del aeroporto : 36 ft
- Codice IATA : LTQ
- Carte del aeroporto


LFAT - Le Touquet

ULTIMO METAR :
  • 121330Z AUTO 29006KT 250V320 9999 BKN027 BKN032 07/01 Q1010 NOSIG

METARs OBSOLETI :
  • 121300Z AUTO 30005KT 270V330 9999 FEW025 06/02 Q1010 NOSIG
  • 121230Z AUTO 29007KT 250V330 9999 SCT021 06/02 Q1010 NOSIG
  • 121200Z AUTO 29008KT 260V320 9999 BKN019 BKN026 07/02 Q1010 NOSIG
  • 121130Z AUTO 28005KT 240V310 9999 FEW020 06/02 Q1010 NOSIG
  • 121100Z AUTO 29005KT 260V320 9999 SCT018/// BKN024/// BKN038/// 06/02 Q1010 NOSIG

TAF TAF LFAT
Valido dal 12 a 12 ore il 12 a 21 ore UTC


121100Z 1212/1221 26008KT 9999 BKN020
PROB30
TEMPO 1218/1221 4000 SHRA
ATIS : +33 3 21 06 62 84
Nessun NOTAM noto per questo aeroporto.



MetMap, La meteo Aeronautica in un colpo d'occhio ! - Copyright ORBIFLY Dicembre 2007 - Disclaimer

ORBIFLY MET'MAP TEAM :

Programmazione e sviluppo : Alexandra Zaïnal
Concezione e sviluppo : Baudouin d'Aumeries
Co-Programmazione e sviluppo : Marc-Olivier Méhu
Supporto tecnico e logistico : Manuel Goepfert
Aiuto per la traduzione : Arnaldo La Scala

Contatto : metmap@orbifly.com




FONTI E CREDITI :

   NOAA